createdAt,value
2019-05-16T00:01:09.343Z,47.30
2019-05-16T00:03:35.661Z,47.20
2019-05-16T00:06:02.105Z,47.10
2019-05-16T00:08:28.669Z,46.80
2019-05-16T00:10:54.989Z,46.80
2019-05-16T00:13:21.154Z,46.80
2019-05-16T00:15:48.076Z,46.10
2019-05-16T00:18:14.631Z,46.40
2019-05-16T00:20:40.947Z,46.30
2019-05-16T00:23:07.942Z,45.90
2019-05-16T00:25:34.337Z,45.90
2019-05-16T00:28:00.533Z,45.80
2019-05-16T00:30:28.752Z,45.60
2019-05-16T00:32:54.892Z,45.60
2019-05-16T00:35:21.085Z,45.60
2019-05-16T00:37:48.347Z,45.40
2019-05-16T00:40:14.939Z,45.50
2019-05-16T00:42:41.117Z,45.30
2019-05-16T00:45:09.104Z,45.10
2019-05-16T00:47:35.782Z,45.00
2019-05-16T00:50:02.351Z,44.80
2019-05-16T00:52:28.917Z,44.70
2019-05-16T00:54:55.215Z,44.40
2019-05-16T00:57:21.877Z,44.10
2019-05-16T00:59:48.609Z,43.80
2019-05-16T01:02:14.967Z,43.50
2019-05-16T01:04:41.155Z,43.40
2019-05-16T01:07:08.155Z,43.10
2019-05-16T01:09:34.697Z,43.10
2019-05-16T01:12:00.928Z,43.00
2019-05-16T01:14:28.253Z,42.80
2019-05-16T01:16:54.734Z,42.20
2019-05-16T01:19:20.901Z,42.40
2019-05-16T01:21:48.386Z,42.40
2019-05-16T01:24:14.685Z,42.20
2019-05-16T01:26:40.908Z,42.20
2019-05-16T01:29:08.529Z,42.20
2019-05-16T01:31:35.198Z,42.00
2019-05-16T01:34:01.498Z,42.10
2019-05-16T01:36:36.710Z,42.00
2019-05-16T01:38:58.372Z,42.00
2019-05-16T01:41:24.317Z,42.00
2019-05-16T01:43:50.510Z,41.80
2019-05-16T01:46:18.037Z,41.80
2019-05-16T01:48:44.567Z,41.80
2019-05-16T01:51:10.968Z,41.60
2019-05-16T01:53:39.332Z,41.40
2019-05-16T01:56:05.420Z,41.40
2019-05-16T01:58:31.895Z,41.20
2019-05-16T02:01:11.621Z,41.20
2019-05-16T02:03:28.263Z,41.20
2019-05-16T02:05:54.713Z,41.10
2019-05-16T02:08:20.895Z,41.00
2019-05-16T02:10:47.833Z,41.10
2019-05-16T02:13:14.377Z,41.00
2019-05-16T02:15:40.655Z,41.10
2019-05-16T02:18:08.219Z,41.10
2019-05-16T02:20:34.828Z,41.00
2019-05-16T02:23:01.124Z,41.00
2019-05-16T02:25:27.726Z,40.90
2019-05-16T02:27:54.060Z,40.80
2019-05-16T02:30:21.755Z,40.60
2019-05-16T02:32:51.907Z,40.60
2019-05-16T02:35:16.495Z,40.50
2019-05-16T02:37:42.842Z,40.60
2019-05-16T02:40:11.934Z,40.60
2019-05-16T02:42:41.546Z,40.10
2019-05-16T02:45:10.681Z,40.50
2019-05-16T02:47:35.441Z,40.50
2019-05-16T02:50:04.138Z,40.40
2019-05-16T02:52:31.779Z,40.50
2019-05-16T02:55:00.928Z,40.40
2019-05-16T02:57:27.193Z,40.50
2019-05-16T02:59:53.438Z,40.50
2019-05-16T03:02:20.589Z,40.50
2019-05-16T03:04:47.304Z,40.60
2019-05-16T03:07:35.524Z,40.60
2019-05-16T03:09:43.783Z,40.60
2019-05-16T03:12:10.821Z,40.60
2019-05-16T03:14:37.557Z,40.70
2019-05-16T03:17:04.621Z,40.80
2019-05-16T03:19:34.391Z,40.70
2019-05-16T03:22:02.345Z,40.80
2019-05-16T03:24:30.984Z,40.80
2019-05-16T03:26:56.989Z,40.70
2019-05-16T03:29:30.696Z,40.70
2019-05-16T03:31:56.643Z,41.00
2019-05-16T03:34:25.381Z,41.00
2019-05-16T03:36:54.384Z,41.00
2019-05-16T03:39:21.255Z,41.10
2019-05-16T03:41:50.557Z,41.10
2019-05-16T03:44:16.732Z,41.20
2019-05-16T03:46:43.148Z,41.30
2019-05-16T03:49:11.305Z,41.50
2019-05-16T03:51:37.820Z,41.50
2019-05-16T03:54:04.331Z,41.60
2019-05-16T03:56:30.795Z,41.70
2019-05-16T03:58:57.230Z,41.80
2019-05-16T04:01:23.545Z,41.80
2019-05-16T04:03:51.153Z,41.70
2019-05-16T04:06:17.893Z,41.90
2019-05-16T04:08:51.853Z,42.20
2019-05-16T04:11:22.790Z,42.00
2019-05-16T04:16:27.667Z,42.10
2019-05-16T04:18:55.137Z,42.10
2019-05-16T04:21:22.235Z,42.20
2019-05-16T04:23:50.638Z,42.40
2019-05-16T04:26:21.382Z,42.50
2019-05-16T04:28:46.505Z,42.60
2019-05-16T04:31:13.646Z,42.50
2019-05-16T04:33:41.665Z,43.10
2019-05-16T04:36:10.859Z,42.50
2019-05-16T04:38:45.063Z,42.70
2019-05-16T04:41:04.930Z,42.70
2019-05-16T04:43:31.748Z,42.80
2019-05-16T04:46:01.383Z,42.80
2019-05-16T04:48:26.878Z,43.00
2019-05-16T04:50:53.320Z,43.00
2019-05-16T04:53:20.727Z,43.00
2019-05-16T04:55:50.988Z,43.00
2019-05-16T04:58:15.616Z,43.20
2019-05-16T05:00:42.536Z,43.20
2019-05-16T05:03:11.711Z,43.20
2019-05-16T05:05:37.114Z,43.20
2019-05-16T05:08:03.430Z,43.10
2019-05-16T05:10:31.268Z,43.20
2019-05-16T05:12:57.789Z,43.30
2019-05-16T05:15:25.443Z,43.30
2019-05-16T05:17:52.397Z,43.60
2019-05-16T05:20:21.067Z,43.60
2019-05-16T05:22:47.053Z,43.50
2019-05-16T05:25:13.585Z,43.70
2019-05-16T05:27:41.173Z,43.90
2019-05-16T05:30:10.275Z,44.00
2019-05-16T05:32:37.581Z,44.00
2019-05-16T05:35:10.333Z,44.10
2019-05-16T05:37:36.060Z,44.20
2019-05-16T05:40:04.076Z,44.30
2019-05-16T05:42:30.725Z,44.20
2019-05-16T05:44:57.404Z,44.10
2019-05-16T05:47:23.867Z,44.40
2019-05-16T05:49:51.123Z,44.30
2019-05-16T05:52:17.728Z,44.50
2019-05-16T05:54:46.228Z,44.40
2019-05-16T05:57:12.689Z,44.30
2019-05-16T05:59:40.407Z,44.10
2019-05-16T06:02:07.728Z,44.00
2019-05-16T06:04:34.143Z,44.30
2019-05-16T06:07:01.170Z,44.20
2019-05-16T06:09:32.591Z,44.10
2019-05-16T06:11:57.875Z,44.10
2019-05-16T06:14:24.338Z,44.00
2019-05-16T06:16:51.360Z,43.80
2019-05-16T06:19:19.953Z,43.80
2019-05-16T06:21:46.551Z,44.00
2019-05-16T06:24:16.011Z,43.90
2019-05-16T06:26:42.165Z,43.90
2019-05-16T06:29:10.408Z,43.80
2019-05-16T06:31:36.842Z,43.70
2019-05-16T06:34:07.753Z,43.60
2019-05-16T06:36:31.853Z,43.60
2019-05-16T06:39:00.086Z,43.70
2019-05-16T06:41:26.324Z,43.70
2019-05-16T06:43:59.814Z,43.80
2019-05-16T06:46:25.585Z,43.70
2019-05-16T06:48:52.459Z,43.50
2019-05-16T06:51:20.034Z,43.20
2019-05-16T06:53:46.562Z,43.30
2019-05-16T06:56:12.979Z,43.50
2019-05-16T06:58:48.137Z,43.30
2019-05-16T07:01:09.703Z,43.20
2019-05-16T07:03:35.502Z,43.00
2019-05-16T07:06:02.553Z,43.20
2019-05-16T07:08:31.017Z,43.30
2019-05-16T07:10:59.846Z,43.20
2019-05-16T07:13:26.002Z,43.30
2019-05-16T07:15:52.345Z,43.30
2019-05-16T07:18:20.990Z,43.40
2019-05-16T07:20:47.185Z,43.40
2019-05-16T07:23:13.567Z,43.30
2019-05-16T07:25:40.966Z,43.30
2019-05-16T07:28:10.072Z,43.10
2019-05-16T07:30:36.071Z,43.30
2019-05-16T07:33:02.565Z,43.20
2019-05-16T07:35:30.800Z,43.20
2019-05-16T07:38:00.478Z,42.80
2019-05-16T07:40:27.103Z,42.60
2019-05-16T07:42:53.969Z,42.60
2019-05-16T07:45:20.597Z,42.80
2019-05-16T07:47:47.142Z,42.80
2019-05-16T07:50:13.862Z,42.80
2019-05-16T07:52:40.596Z,42.70
2019-05-16T07:55:10.857Z,42.40
2019-05-16T07:57:36.519Z,42.70
2019-05-16T08:00:09.664Z,42.60
2019-05-16T08:02:37.289Z,42.60
2019-05-16T08:05:04.772Z,42.40
2019-05-16T08:07:33.561Z,42.30
2019-05-16T08:09:59.911Z,42.10
2019-05-16T08:12:26.944Z,41.70
2019-05-16T08:14:53.659Z,41.70
2019-05-16T08:17:21.628Z,41.50
2019-05-16T08:19:50.438Z,41.80
2019-05-16T08:22:16.308Z,42.10
2019-05-16T08:24:42.630Z,42.20
2019-05-16T08:27:12.183Z,42.40
2019-05-16T08:29:39.859Z,42.40
2019-05-16T08:32:05.692Z,41.90
2019-05-16T08:34:32.377Z,41.70
2019-05-16T08:37:01.171Z,41.40
2019-05-16T08:39:30.113Z,41.10
2019-05-16T08:41:56.058Z,40.90
2019-05-16T08:44:23.540Z,40.70
2019-05-16T08:46:57.095Z,40.70
2019-05-16T08:49:22.203Z,40.50
2019-05-16T08:51:52.121Z,41.00
2019-05-16T08:54:15.849Z,40.80
2019-05-16T08:56:44.485Z,40.20
2019-05-16T08:59:13.497Z,40.20
2019-05-16T09:01:50.643Z,39.80
2019-05-16T09:04:11.708Z,38.90
2019-05-16T09:06:36.824Z,38.80
2019-05-16T09:09:26.785Z,39.00
2019-05-16T09:11:41.416Z,39.10
2019-05-16T09:14:02.489Z,39.30
2019-05-16T09:16:29.135Z,39.50
2019-05-16T09:18:57.534Z,38.90
2019-05-16T09:21:27.129Z,39.10
2019-05-16T09:23:52.260Z,38.90
2019-05-16T09:26:19.952Z,39.10
2019-05-16T09:28:48.234Z,38.80
2019-05-16T09:31:17.448Z,38.50
2019-05-16T09:33:43.553Z,38.40
2019-05-16T09:36:09.914Z,38.70
2019-05-16T09:38:38.243Z,38.60
2019-05-16T09:41:07.673Z,38.70
2019-05-16T09:43:33.007Z,38.90
2019-05-16T09:46:03.668Z,38.90
2019-05-16T09:48:28.291Z,38.90
2019-05-16T09:50:57.470Z,38.60
2019-05-16T09:53:22.931Z,37.90
2019-05-16T09:55:49.327Z,37.70
2019-05-16T09:58:18.108Z,37.40
2019-05-16T10:00:47.066Z,37.10
2019-05-16T10:03:12.700Z,37.00
2019-05-16T10:05:39.219Z,37.30
2019-05-16T10:08:06.875Z,37.80
2019-05-16T10:10:33.644Z,37.60
2019-05-16T10:13:00.016Z,37.30
2019-05-16T10:15:27.003Z,36.90
2019-05-16T10:17:53.629Z,36.80
2019-05-16T10:20:20.276Z,36.50
2019-05-16T10:22:50.663Z,36.00
2019-05-16T10:25:19.354Z,35.20
2019-05-16T10:27:47.356Z,35.10
2019-05-16T10:30:17.540Z,35.10
2019-05-16T10:32:43.937Z,35.40
2019-05-16T10:35:10.857Z,35.50
2019-05-16T10:37:37.621Z,35.40
2019-05-16T10:40:07.317Z,36.50
2019-05-16T10:42:37.672Z,36.30
2019-05-16T10:45:08.297Z,36.30
2019-05-16T10:47:33.639Z,35.60
2019-05-16T10:50:00.242Z,35.40
2019-05-16T10:52:27.138Z,35.20
2019-05-16T10:54:58.305Z,35.00
2019-05-16T10:57:21.639Z,34.70
2019-05-16T11:00:05.333Z,34.70
2019-05-16T11:02:16.835Z,34.80
2019-05-16T11:04:57.393Z,34.70
2019-05-16T11:07:11.750Z,34.90
2019-05-16T11:09:39.470Z,35.10
2019-05-16T11:12:06.564Z,35.00
2019-05-16T11:14:33.125Z,34.50
2019-05-16T11:17:01.182Z,34.60
2019-05-16T11:19:28.374Z,34.40
2019-05-16T11:21:57.199Z,34.30
2019-05-16T11:24:23.182Z,34.60
2019-05-16T11:26:50.064Z,35.20
2019-05-16T11:29:17.268Z,35.50
2019-05-16T11:31:46.998Z,35.90
2019-05-16T11:34:14.421Z,35.20
2019-05-16T11:36:44.708Z,35.20
2019-05-16T11:39:11.961Z,35.80
2019-05-16T11:41:44.143Z,36.40
2019-05-16T11:44:17.390Z,36.10
2019-05-16T11:46:44.097Z,35.60
2019-05-16T11:49:11.967Z,36.10
2019-05-16T11:51:38.500Z,36.70
2019-05-16T11:54:06.762Z,38.10
2019-05-16T11:56:32.904Z,36.00
2019-05-16T11:58:59.178Z,34.80
2019-05-16T12:01:27.465Z,34.60
2019-05-16T12:03:53.505Z,35.40
2019-05-16T12:06:19.801Z,35.30
2019-05-16T12:08:46.728Z,35.40
2019-05-16T12:11:13.094Z,35.00
2019-05-16T12:13:39.269Z,35.30
2019-05-16T12:16:07.641Z,35.00
2019-05-16T12:18:33.771Z,35.00
2019-05-16T12:21:00.088Z,35.30
2019-05-16T12:23:27.585Z,35.10
2019-05-16T12:25:56.241Z,35.70
2019-05-16T12:28:22.144Z,35.40
2019-05-16T12:30:48.299Z,35.60
2019-05-16T12:33:14.612Z,35.80
2019-05-16T12:35:40.905Z,36.20
2019-05-16T12:38:08.133Z,36.30
2019-05-16T12:40:37.393Z,36.30
2019-05-16T12:43:03.054Z,36.60
2019-05-16T12:45:29.337Z,36.70
2019-05-16T12:47:57.288Z,37.20
2019-05-16T12:50:23.911Z,37.40
2019-05-16T12:52:50.097Z,37.80
2019-05-16T12:55:16.788Z,38.00
2019-05-16T12:57:42.998Z,37.60
2019-05-16T13:00:15.464Z,37.50
2019-05-16T13:02:40.147Z,37.60
2019-05-16T13:05:07.927Z,37.80
2019-05-16T13:07:34.336Z,38.20
2019-05-16T13:10:01.229Z,38.40
2019-05-16T13:12:27.579Z,38.50
2019-05-16T13:14:53.803Z,38.60
2019-05-16T13:17:22.048Z,38.80
2019-05-16T13:19:49.523Z,39.30
2019-05-16T13:22:17.064Z,40.00
2019-05-16T13:24:44.230Z,40.60
2019-05-16T13:27:10.682Z,40.70
2019-05-16T13:29:37.322Z,40.70
2019-05-16T13:32:03.607Z,40.50
2019-05-16T13:34:29.887Z,40.70
2019-05-16T13:36:57.897Z,40.70
2019-05-16T13:39:27.754Z,41.10
2019-05-16T13:41:54.407Z,41.20
2019-05-16T13:44:23.140Z,41.30
2019-05-16T13:46:49.830Z,41.70
2019-05-16T13:49:17.991Z,42.30
2019-05-16T13:51:44.763Z,43.00
2019-05-16T13:54:11.535Z,43.30
2019-05-16T13:56:40.323Z,43.90
2019-05-16T13:59:17.032Z,44.50
2019-05-16T14:01:43.252Z,44.40
2019-05-16T14:04:10.263Z,44.20
2019-05-16T14:06:44.311Z,44.40
2019-05-16T14:09:13.285Z,44.70
2019-05-16T14:11:40.020Z,45.00
2019-05-16T14:14:06.710Z,45.40
2019-05-16T14:16:39.553Z,45.40
2019-05-16T14:19:07.496Z,45.70
2019-05-16T14:21:33.978Z,46.00
2019-05-16T14:24:00.805Z,46.30
2019-05-16T14:26:27.321Z,46.50
2019-05-16T14:28:54.078Z,46.70
2019-05-16T14:31:22.669Z,46.50
2019-05-16T14:33:49.130Z,46.70
2019-05-16T14:36:15.635Z,47.10
2019-05-16T14:38:42.229Z,47.20
2019-05-16T14:41:09.912Z,47.40
2019-05-16T14:43:36.568Z,48.00
2019-05-16T14:46:06.417Z,48.80
2019-05-16T14:48:31.935Z,49.00
2019-05-16T14:50:58.854Z,50.30
2019-05-16T14:53:28.187Z,51.80
2019-05-16T14:55:53.678Z,52.80
2019-05-16T14:58:20.888Z,53.80
2019-05-16T15:00:49.172Z,54.40
2019-05-16T15:03:18.109Z,54.50
2019-05-16T15:05:44.632Z,55.10
2019-05-16T15:08:11.035Z,55.40
2019-05-16T15:10:38.157Z,55.50
2019-05-16T15:13:07.871Z,55.90
2019-05-16T15:15:34.196Z,55.90
2019-05-16T15:18:00.845Z,55.70
2019-05-16T15:20:28.008Z,55.80
2019-05-16T15:22:56.736Z,55.90
2019-05-16T15:25:23.238Z,56.00
2019-05-16T15:27:49.691Z,56.10
2019-05-16T15:30:17.219Z,56.10
2019-05-16T15:32:44.155Z,55.80
2019-05-16T15:35:11.347Z,56.10
2019-05-16T15:37:38.410Z,55.90
2019-05-16T15:40:08.543Z,55.70
2019-05-16T15:42:37.325Z,55.80
2019-05-16T15:45:07.008Z,55.90
2019-05-16T15:47:37.143Z,55.90
2019-05-16T15:50:07.947Z,56.00
2019-05-16T15:52:38.192Z,55.90
2019-05-16T15:55:09.626Z,56.20
2019-05-16T15:57:34.460Z,56.70
2019-05-16T16:00:01.254Z,57.00
2019-05-16T16:02:27.917Z,57.90
2019-05-16T16:04:54.356Z,58.10
2019-05-16T16:07:21.178Z,58.40
2019-05-16T16:09:47.723Z,59.50
2019-05-16T16:12:14.152Z,59.10
2019-05-16T16:14:41.033Z,59.30
2019-05-16T16:17:07.545Z,59.40
2019-05-16T16:19:34.107Z,59.40
2019-05-16T16:22:01.547Z,59.50
2019-05-16T16:24:28.141Z,59.60
2019-05-16T16:26:56.566Z,59.50
2019-05-16T16:29:22.825Z,59.40
2019-05-16T16:31:49.525Z,59.30
2019-05-16T16:34:17.551Z,59.10
2019-05-16T16:36:44.232Z,58.90
2019-05-16T16:39:10.814Z,58.90
2019-05-16T16:41:37.594Z,58.80
2019-05-16T16:44:04.291Z,58.90
2019-05-16T16:46:30.825Z,58.70
2019-05-16T16:48:57.226Z,58.60
2019-05-16T16:51:23.449Z,58.50
2019-05-16T16:53:49.848Z,58.50
2019-05-16T16:56:16.787Z,58.60
2019-05-16T16:58:43.764Z,58.60
2019-05-16T17:01:10.282Z,58.60
2019-05-16T17:03:37.172Z,58.50
2019-05-16T17:06:03.922Z,58.30
2019-05-16T17:08:30.257Z,58.30
2019-05-16T17:10:57.577Z,58.90
2019-05-16T17:13:24.662Z,58.30
2019-05-16T17:15:51.196Z,58.30
2019-05-16T17:18:17.726Z,58.20
2019-05-16T17:20:44.579Z,58.30
2019-05-16T17:23:11.093Z,58.20
2019-05-16T17:25:37.492Z,58.60
2019-05-16T17:28:06.729Z,58.20
2019-05-16T17:30:33.112Z,58.30
2019-05-16T17:32:59.405Z,58.20
2019-05-16T17:35:26.922Z,58.60
2019-05-16T17:37:53.362Z,58.60
2019-05-16T17:40:20.110Z,58.60
2019-05-16T17:42:47.730Z,58.60
2019-05-16T17:45:18.035Z,58.70
2019-05-16T17:47:46.604Z,59.20
2019-05-16T17:50:14.061Z,59.40
2019-05-16T17:52:40.904Z,59.80
2019-05-16T17:55:07.872Z,59.90
2019-05-16T17:57:36.952Z,60.30
2019-05-16T18:00:07.097Z,60.40
2019-05-16T18:02:33.645Z,60.70
2019-05-16T18:05:00.338Z,60.90
2019-05-16T18:07:27.020Z,60.90
2019-05-16T18:09:53.551Z,61.30
2019-05-16T18:12:19.890Z,62.00
2019-05-16T18:14:49.727Z,61.30
2019-05-16T18:17:14.837Z,61.70
2019-05-16T18:19:41.397Z,61.70
2019-05-16T18:22:07.636Z,61.80
2019-05-16T18:24:36.775Z,61.90
2019-05-16T18:27:03.281Z,62.80
2019-05-16T18:29:29.661Z,63.40
2019-05-16T18:31:55.923Z,63.20
2019-05-16T18:34:22.307Z,63.60
2019-05-16T18:36:49.618Z,63.90
2019-05-16T18:39:16.208Z,64.80
2019-05-16T18:41:43.675Z,64.30
2019-05-16T18:44:10.223Z,64.70
2019-05-16T18:46:36.823Z,65.00
2019-05-16T18:49:03.311Z,65.20
2019-05-16T18:51:31.135Z,65.80
2019-05-16T18:53:58.246Z,66.30
2019-05-16T18:56:27.202Z,66.50
2019-05-16T18:58:53.792Z,67.00
2019-05-16T19:01:19.995Z,67.30
2019-05-16T19:03:48.821Z,67.60
2019-05-16T19:06:17.006Z,67.90
2019-05-16T19:08:43.656Z,68.00
2019-05-16T19:11:10.110Z,68.30
2019-05-16T19:13:37.168Z,68.40
2019-05-16T19:16:03.591Z,68.50
2019-05-16T19:18:29.989Z,68.50
2019-05-16T19:20:57.024Z,69.10
2019-05-16T19:23:23.579Z,69.40
2019-05-16T19:25:50.139Z,69.20
2019-05-16T19:28:16.918Z,69.40
2019-05-16T19:30:43.225Z,69.30
2019-05-16T19:33:09.660Z,69.30
2019-05-16T19:35:36.070Z,69.50
2019-05-16T19:38:02.881Z,69.50
2019-05-16T19:40:29.114Z,69.80
2019-05-16T19:42:56.583Z,69.80
2019-05-16T19:45:23.633Z,69.90
2019-05-16T19:47:50.188Z,69.90
2019-05-16T19:50:17.492Z,69.90
2019-05-16T19:52:44.222Z,70.40
2019-05-16T19:55:10.890Z,70.20
2019-05-16T19:57:37.607Z,70.10
2019-05-16T20:00:06.421Z,70.20
2019-05-16T20:02:32.753Z,70.10
2019-05-16T20:04:59.063Z,69.90
2019-05-16T20:07:26.367Z,69.80
2019-05-16T20:09:52.861Z,70.00
2019-05-16T20:12:19.205Z,69.90
2019-05-16T20:14:47.288Z,70.00
2019-05-16T20:17:16.155Z,70.10
2019-05-16T20:19:43.237Z,70.20
2019-05-16T20:22:09.608Z,70.00
2019-05-16T20:24:36.299Z,70.00
2019-05-16T20:27:05.066Z,70.00
2019-05-16T20:29:31.323Z,70.10
2019-05-16T20:31:59.510Z,70.30
2019-05-16T20:34:26.805Z,70.20
2019-05-16T20:36:53.338Z,70.20
2019-05-16T20:39:19.676Z,70.30
2019-05-16T20:41:47.529Z,70.50
2019-05-16T20:44:13.955Z,70.20
2019-05-16T20:46:40.747Z,70.40
2019-05-16T20:49:08.052Z,70.30
2019-05-16T20:51:34.739Z,70.30
2019-05-16T20:54:00.935Z,70.30
2019-05-16T20:56:28.015Z,70.20
2019-05-16T20:58:54.494Z,70.50
2019-05-16T21:01:20.896Z,70.20
2019-05-16T21:03:47.300Z,70.20
2019-05-16T21:06:13.809Z,70.20
2019-05-16T21:08:40.592Z,70.30
2019-05-16T21:11:06.985Z,70.30
2019-05-16T21:13:33.500Z,70.40
2019-05-16T21:15:59.911Z,70.40
2019-05-16T21:18:26.329Z,70.60
2019-05-16T21:20:52.625Z,70.60
2019-05-16T21:23:19.606Z,70.60
2019-05-16T21:25:46.636Z,70.80
2019-05-16T21:28:13.145Z,70.80
2019-05-16T21:30:39.452Z,70.80
2019-05-16T21:33:05.694Z,70.80
2019-05-16T21:35:31.867Z,70.70
2019-05-16T21:37:58.232Z,70.60
2019-05-16T21:40:26.530Z,70.60
2019-05-16T21:42:52.916Z,70.60
2019-05-16T21:45:19.401Z,70.60
2019-05-16T21:47:47.031Z,70.50
2019-05-16T21:50:13.934Z,70.30
2019-05-16T21:52:40.618Z,70.20
2019-05-16T21:55:08.245Z,70.00
2019-05-16T21:57:37.483Z,70.00
2019-05-16T22:00:26.660Z,70.00
2019-05-16T22:02:53.214Z,70.00
2019-05-16T22:05:19.950Z,70.00
2019-05-16T22:07:47.393Z,69.90
2019-05-16T22:10:14.610Z,69.90
2019-05-16T22:12:41.197Z,70.00
2019-05-16T22:15:08.083Z,70.10
2019-05-16T22:17:36.474Z,69.90
2019-05-16T22:20:06.870Z,69.70
2019-05-16T22:22:32.932Z,69.60
2019-05-16T22:24:59.223Z,69.60
2019-05-16T22:27:26.894Z,69.60
2019-05-16T22:29:53.347Z,69.50
2019-05-16T22:32:19.610Z,69.40
2019-05-16T22:34:47.656Z,69.50
2019-05-16T22:37:14.553Z,69.50
2019-05-16T22:39:40.785Z,69.40
2019-05-16T22:42:09.316Z,69.40
2019-05-16T22:44:37.193Z,69.40
2019-05-16T22:47:03.804Z,69.50
2019-05-16T22:49:30.246Z,69.50
2019-05-16T22:51:57.119Z,69.50
2019-05-16T22:54:26.162Z,69.50
2019-05-16T22:56:52.759Z,69.40
2019-05-16T22:59:19.064Z,69.50
2019-05-16T23:01:45.559Z,69.60
2019-05-16T23:04:12.025Z,69.70
2019-05-16T23:06:38.281Z,69.60
2019-05-16T23:09:06.915Z,69.70
2019-05-16T23:11:33.377Z,69.70
2019-05-16T23:13:59.851Z,69.60
2019-05-16T23:16:26.717Z,69.60
2019-05-16T23:18:53.521Z,69.60
2019-05-16T23:21:19.954Z,69.70
2019-05-16T23:23:46.612Z,69.80
2019-05-16T23:26:13.118Z,69.60
2019-05-16T23:28:39.465Z,69.60
2019-05-16T23:31:06.215Z,69.60
2019-05-16T23:33:32.774Z,69.60
2019-05-16T23:35:59.200Z,69.60
2019-05-16T23:38:27.649Z,69.70
2019-05-16T23:40:53.826Z,69.60
2019-05-16T23:43:20.260Z,69.60
2019-05-16T23:45:46.985Z,69.60
2019-05-16T23:48:13.322Z,69.60
2019-05-16T23:50:39.681Z,69.80
2019-05-16T23:53:07.415Z,69.80
2019-05-16T23:55:36.871Z,69.90
2019-05-16T23:58:02.309Z,70.00
